Time,TemperatureF,DewpointF,PressureIn,WindDirection,WindDirectionDegrees,WindSpeedMPH,WindSpeedGustMPH,Humidity,HourlyPrecipIn,Conditions,Clouds,dailyrainin,SoftwareType,DateUTC
2013-12-28 00:01:00,34.5,31.0,29.96,SSE,160,0.0,0.0,87,0.00,,,0.00,WUHU216DAVISVP2,2013-12-28 06:01:00,
2013-12-28 00:06:00,34.8,31.3,29.96,SSE,153,0.0,0.0,87,0.00,,,0.00,WUHU216DAVISVP2,2013-12-28 06:06:00,
2013-12-28 00:11:00,34.8,31.3,29.95,SE,138,0.0,0.0,87,0.00,,,0.00,WUHU216DAVISVP2,2013-12-28 06:11:00,
2013-12-28 00:16:00,34.9,31.1,29.95,SSE,153,0.0,0.0,86,0.00,,,0.00,WUHU216DAVISVP2,2013-12-28 06:16:00,
2013-12-28 00:21:00,35.0,31.2,29.95,SE,133,0.0,0.0,86,0.00,,,0.00,WUHU216DAVISVP2,2013-12-28 06:21:00,
2013-12-28 00:26:00,35.0,31.2,29.95,SSE,147,0.0,0.0,86,0.00,,,0.00,WUHU216DAVISVP2,2013-12-28 06:26:00,
2013-12-28 00:31:00,34.9,30.8,29.95,SE,124,0.0,0.0,85,0.00,,,0.00,WUHU216DAVISVP2,2013-12-28 06:31:00,
2013-12-28 00:36:00,34.7,30.9,29.94,SE,142,0.0,0.0,86,0.00,,,0.00,WUHU216DAVISVP2,2013-12-28 06:36:00,
2013-12-28 00:41:00,34.6,30.8,29.94,SE,128,0.0,0.0,86,0.00,,,0.00,WUHU216DAVISVP2,2013-12-28 06:41:00,
2013-12-28 00:46:00,34.3,30.5,29.93,SE,131,0.0,0.0,86,0.00,,,0.00,WUHU216DAVISVP2,2013-12-28 06:46:00,
2013-12-28 00:51:00,34.1,30.3,29.93,SE,131,0.0,0.0,86,0.00,,,0.00,WUHU216DAVISVP2,2013-12-28 06:51:00,
2013-12-28 00:56:00,34.0,30.5,29.93,SE,141,0.0,0.0,87,0.00,,,0.00,WUHU216DAVISVP2,2013-12-28 06:56:00,
2013-12-28 01:01:00,34.0,30.5,29.93,SE,132,0.0,0.0,87,0.00,,,0.00,WUHU216DAVISVP2,2013-12-28 07:01:00,
2013-12-28 01:06:00,34.0,30.2,29.93,SSE,148,0.0,0.0,86,0.00,,,0.00,WUHU216DAVISVP2,2013-12-28 07:06:00,
2013-12-28 01:11:00,34.2,30.4,29.92,SSE,153,0.0,0.0,86,0.00,,,0.00,WUHU216DAVISVP2,2013-12-28 07:11:00,
2013-12-28 01:16:00,34.0,30.2,29.92,SSE,151,0.0,0.0,86,0.00,,,0.00,WUHU216DAVISVP2,2013-12-28 07:16:00,
2013-12-28 01:21:00,33.6,29.8,29.92,SE,139,0.0,0.0,86,0.00,,,0.00,WUHU216DAVISVP2,2013-12-28 07:21:00,
2013-12-28 01:26:00,32.9,29.1,29.92,ESE,117,0.0,0.0,86,0.00,,,0.00,WUHU216DAVISVP2,2013-12-28 07:26:00,
2013-12-28 01:31:00,32.4,28.9,29.91,SE,139,0.0,0.0,87,0.00,,,0.00,WUHU216DAVISVP2,2013-12-28 07:31:00,
2013-12-28 01:36:00,31.9,28.7,29.91,SSE,148,0.0,0.0,88,0.00,,,0.00,WUHU216DAVISVP2,2013-12-28 07:36:00,
2013-12-28 01:41:00,31.6,28.4,29.91,SSE,162,0.0,0.0,88,0.00,,,0.00,WUHU216DAVISVP2,2013-12-28 07:41:00,
2013-12-28 01:46:00,31.6,28.7,29.91,SE,141,0.0,0.0,89,0.00,,,0.00,WUHU216DAVISVP2,2013-12-28 07:46:00,
2013-12-28 01:51:00,31.7,28.8,29.90,SSE,155,0.0,0.0,89,0.00,,,0.00,WUHU216DAVISVP2,2013-12-28 07:51:00,
2013-12-28 01:56:00,32.0,29.1,29.90,SE,140,0.0,0.0,89,0.00,,,0.00,WUHU216DAVISVP2,2013-12-28 07:56:00,
2013-12-28 02:01:00,32.2,29.0,29.90,SSE,148,0.0,0.0,88,0.00,,,0.00,WUHU216DAVISVP2,2013-12-28 08:01:00,
2013-12-28 02:06:00,32.2,29.0,29.90,SE,134,0.0,0.0,88,0.00,,,0.00,WUHU216DAVISVP2,2013-12-28 08:06:00,
2013-12-28 02:11:00,32.1,28.6,29.90,SE,140,0.0,0.0,87,0.00,,,0.00,WUHU216DAVISVP2,2013-12-28 08:11:00,
2013-12-28 02:16:00,31.9,28.4,29.89,SE,143,0.0,0.0,87,0.00,,,0.00,WUHU216DAVISVP2,2013-12-28 08:16:00,
2013-12-28 02:21:00,31.7,28.5,29.89,SE,133,0.0,0.0,88,0.00,,,0.00,WUHU216DAVISVP2,2013-12-28 08:21:00,
2013-12-28 02:26:00,31.6,28.4,29.89,SE,135,0.0,0.0,88,0.00,,,0.00,WUHU216DAVISVP2,2013-12-28 08:26:00,
2013-12-28 02:31:00,31.5,28.3,29.89,SE,134,0.0,0.0,88,0.00,,,0.00,WUHU216DAVISVP2,2013-12-28 08:31:00,
2013-12-28 02:36:00,31.4,28.2,29.89,SE,135,0.0,0.0,88,0.00,,,0.00,WUHU216DAVISVP2,2013-12-28 08:36:00,
2013-12-28 02:41:00,31.5,28.6,29.88,SE,142,0.0,0.0,89,0.00,,,0.00,WUHU216DAVISVP2,2013-12-28 08:41:00,
2013-12-28 02:46:00,31.4,28.3,29.88,SE,139,0.0,0.0,88,0.00,,,0.00,WUHU216DAVISVP2,2013-12-28 08:46:00,
2013-12-28 02:51:00,31.2,28.1,29.88,SE,135,0.0,0.0,88,0.00,,,0.00,WUHU216DAVISVP2,2013-12-28 08:51:00,
2013-12-28 02:56:00,31.3,28.4,29.88,SSE,149,0.0,0.0,89,0.00,,,0.00,WUHU216DAVISVP2,2013-12-28 08:56:00,
2013-12-28 03:01:00,31.3,28.1,29.88,SE,143,0.0,0.0,88,0.00,,,0.00,WUHU216DAVISVP2,2013-12-28 09:01:00,
2013-12-28 03:06:00,31.1,28.2,29.88,SE,143,0.0,0.0,89,0.00,,,0.00,WUHU216DAVISVP2,2013-12-28 09:06:00,
2013-12-28 03:11:00,31.2,28.3,29.87,SE,136,0.0,0.0,89,0.00,,,0.00,WUHU216DAVISVP2,2013-12-28 09:11:00,
2013-12-28 03:16:00,31.4,28.5,29.87,SE,143,0.0,0.0,89,0.00,,,0.00,WUHU216DAVISVP2,2013-12-28 09:16:00,
2013-12-28 03:21:00,31.5,28.3,29.87,SE,143,0.0,0.0,88,0.00,,,0.00,WUHU216DAVISVP2,2013-12-28 09:21:00,
2013-12-28 03:26:00,31.5,28.3,29.87,SE,136,0.0,0.0,88,0.00,,,0.00,WUHU216DAVISVP2,2013-12-28 09:26:00,
2013-12-28 03:31:00,31.6,28.4,29.87,SE,143,0.0,0.0,88,0.00,,,0.00,WUHU216DAVISVP2,2013-12-28 09:31:00,
2013-12-28 03:36:00,31.6,28.4,29.86,SE,140,0.0,0.0,88,0.00,,,0.00,WUHU216DAVISVP2,2013-12-28 09:36:00,
2013-12-28 03:41:00,32.2,29.0,29.86,SE,130,0.0,0.0,88,0.00,,,0.00,WUHU216DAVISVP2,2013-12-28 09:41:00,
2013-12-28 03:46:00,32.9,29.1,29.86,SE,143,0.0,0.0,86,0.00,,,0.00,WUHU216DAVISVP2,2013-12-28 09:46:00,
2013-12-28 03:51:00,33.5,29.7,29.85,SSE,157,0.0,0.0,86,0.00,,,0.00,WUHU216DAVISVP2,2013-12-28 09:51:00,
2013-12-28 03:56:00,34.0,29.7,29.85,SSW,192,0.0,0.0,84,0.00,,,0.00,WUHU216DAVISVP2,2013-12-28 09:56:00,
2013-12-28 04:01:00,34.2,29.6,29.85,SSE,158,0.0,0.0,83,0.00,,,0.00,WUHU216DAVISVP2,2013-12-28 10:01:00,
2013-12-28 04:06:00,34.4,29.8,29.84,SE,133,0.0,0.0,83,0.00,,,0.00,WUHU216DAVISVP2,2013-12-28 10:06:00,
2013-12-28 04:11:00,34.5,29.9,29.84,SSE,159,0.0,0.0,83,0.00,,,0.00,WUHU216DAVISVP2,2013-12-28 10:11:00,
2013-12-28 04:16:00,34.7,29.8,29.84,SSE,154,0.0,0.0,82,0.00,,,0.00,WUHU216DAVISVP2,2013-12-28 10:16:00,
2013-12-28 04:21:00,34.9,30.0,29.83,SE,146,0.0,0.0,82,0.00,,,0.00,WUHU216DAVISVP2,2013-12-28 10:21:00,
2013-12-28 04:26:00,35.1,29.9,29.83,SSE,150,0.0,0.0,81,0.00,,,0.00,WUHU216DAVISVP2,2013-12-28 10:26:00,
2013-12-28 04:31:00,35.3,30.1,29.83,South,177,0.0,0.0,81,0.00,,,0.00,WUHU216DAVISVP2,2013-12-28 10:31:00,
2013-12-28 04:36:00,35.4,30.1,29.83,SSE,155,0.0,0.0,81,0.00,,,0.00,WUHU216DAVISVP2,2013-12-28 10:36:00,
2013-12-28 04:41:00,35.5,29.9,29.83,SE,146,0.0,0.0,80,0.00,,,0.00,WUHU216DAVISVP2,2013-12-28 10:41:00,
2013-12-28 04:46:00,35.7,30.1,29.83,SSE,164,0.0,0.0,80,0.00,,,0.00,WUHU216DAVISVP2,2013-12-28 10:46:00,
2013-12-28 04:51:00,35.6,30.1,29.82,SSE,167,0.0,0.0,80,0.00,,,0.00,WUHU216DAVISVP2,2013-12-28 10:51:00,
2013-12-28 04:57:00,35.7,30.1,29.82,SSE,165,0.0,3.0,80,0.00,,,0.00,WUHU216DAVISVP2,2013-12-28 10:57:00,
2013-12-28 05:02:00,35.5,29.7,29.82,SSE,150,1.0,4.0,79,0.00,,,0.00,WUHU216DAVISVP2,2013-12-28 11:02:00,
2013-12-28 05:07:00,35.3,29.8,29.82,SSE,149,3.0,4.0,80,0.00,,,0.00,WUHU216DAVISVP2,2013-12-28 11:07:00,
2013-12-28 05:13:00,35.1,29.6,29.82,SSE,156,2.0,4.0,80,0.00,,,0.00,WUHU216DAVISVP2,2013-12-28 11:13:00,
2013-12-28 05:18:00,34.9,29.4,29.82,SSE,160,3.0,4.0,80,0.00,,,0.00,WUHU216DAVISVP2,2013-12-28 11:18:00,
2013-12-28 05:23:00,34.6,29.1,29.81,SSE,152,1.0,4.0,80,0.00,,,0.00,WUHU216DAVISVP2,2013-12-28 11:23:00,
2013-12-28 05:29:00,34.2,29.0,29.81,SSE,155,1.0,3.0,81,0.00,,,0.00,WUHU216DAVISVP2,2013-12-28 11:29:00,
2013-12-28 05:35:00,34.0,29.1,29.81,SE,143,1.0,3.0,82,0.00,,,0.00,WUHU216DAVISVP2,2013-12-28 11:35:00,
2013-12-28 05:40:00,34.1,29.2,29.81,SSE,153,1.0,4.0,82,0.00,,,0.00,WUHU216DAVISVP2,2013-12-28 11:40:00,
2013-12-28 05:45:00,34.1,29.2,29.81,SSE,159,1.0,4.0,82,0.00,,,0.00,WUHU216DAVISVP2,2013-12-28 11:45:00,
2013-12-28 05:50:00,34.2,29.0,29.81,SSE,153,0.0,3.0,81,0.00,,,0.00,WUHU216DAVISVP2,2013-12-28 11:50:00,
2013-12-28 05:56:00,34.3,29.1,29.80,SSE,153,1.0,3.0,81,0.00,,,0.00,WUHU216DAVISVP2,2013-12-28 11:56:00,
2013-12-28 06:02:00,34.1,28.6,29.81,SE,141,0.0,3.0,80,0.00,,,0.00,WUHU216DAVISVP2,2013-12-28 12:02:00,
2013-12-28 06:07:00,33.7,28.5,29.80,SE,143,3.0,3.0,81,0.00,,,0.00,WUHU216DAVISVP2,2013-12-28 12:07:00,
2013-12-28 06:13:00,33.3,28.1,29.80,SSE,166,1.0,3.0,81,0.00,,,0.00,WUHU216DAVISVP2,2013-12-28 12:13:00,
2013-12-28 06:18:00,32.9,28.0,29.80,SSE,150,1.0,3.0,82,0.00,,,0.00,WUHU216DAVISVP2,2013-12-28 12:18:00,
2013-12-28 06:24:00,32.5,27.6,29.80,SE,137,1.0,3.0,82,0.00,,,0.00,WUHU216DAVISVP2,2013-12-28 12:24:00,
2013-12-28 06:29:00,32.3,27.4,29.79,SSE,153,1.0,4.0,82,0.00,,,0.00,WUHU216DAVISVP2,2013-12-28 12:29:00,
2013-12-28 06:35:00,32.1,27.2,29.79,SE,142,1.0,4.0,82,0.00,,,0.00,WUHU216DAVISVP2,2013-12-28 12:35:00,
2013-12-28 06:41:00,31.8,26.9,29.79,SE,131,1.0,4.0,82,0.00,,,0.00,WUHU216DAVISVP2,2013-12-28 12:41:00,
2013-12-28 06:46:00,31.6,27.0,29.79,SE,146,1.0,3.0,83,0.00,,,0.00,WUHU216DAVISVP2,2013-12-28 12:46:00,
2013-12-28 06:52:00,31.5,26.9,29.79,SSE,153,1.0,3.0,83,0.00,,,0.00,WUHU216DAVISVP2,2013-12-28 12:52:00,
2013-12-28 06:57:00,31.6,27.0,29.78,SE,139,1.0,3.0,83,0.00,,,0.00,WUHU216DAVISVP2,2013-12-28 12:57:00,
2013-12-28 07:03:00,31.4,26.5,29.78,SE,141,1.0,3.0,82,0.00,,,0.00,WUHU216DAVISVP2,2013-12-28 13:03:00,
2013-12-28 07:09:00,31.3,26.7,29.78,SSE,151,1.0,3.0,83,0.00,,,0.00,WUHU216DAVISVP2,2013-12-28 13:09:00,
2013-12-28 07:14:00,31.3,26.7,29.78,SSE,153,2.0,3.0,83,0.00,,,0.00,WUHU216DAVISVP2,2013-12-28 13:14:00,
2013-12-28 07:20:00,31.2,26.6,29.78,SSE,148,1.0,3.0,83,0.00,,,0.00,WUHU216DAVISVP2,2013-12-28 13:20:00,
2013-12-28 07:26:00,31.1,26.5,29.77,SSE,158,3.0,4.0,83,0.00,,,0.00,WUHU216DAVISVP2,2013-12-28 13:26:00,
2013-12-28 07:31:00,30.9,26.3,29.77,SE,142,2.0,4.0,83,0.00,,,0.00,WUHU216DAVISVP2,2013-12-28 13:31:00,
2013-12-28 07:37:00,30.9,26.3,29.76,SE,145,1.0,3.0,83,0.00,,,0.00,WUHU216DAVISVP2,2013-12-28 13:37:00,
2013-12-28 07:43:00,30.9,26.3,29.76,SE,132,3.0,3.0,83,0.00,,,0.00,WUHU216DAVISVP2,2013-12-28 13:43:00,
2013-12-28 07:48:00,30.8,26.2,29.77,SE,141,3.0,3.0,83,0.00,,,0.00,WUHU216DAVISVP2,2013-12-28 13:48:00,
2013-12-28 07:54:00,30.8,26.2,29.76,SE,138,3.0,3.0,83,0.00,,,0.00,WUHU216DAVISVP2,2013-12-28 13:54:00,
2013-12-28 07:59:00,30.9,26.3,29.76,SSE,148,2.0,3.0,83,0.00,,,0.00,WUHU216DAVISVP2,2013-12-28 13:59:00,
2013-12-28 08:04:00,31.0,26.4,29.76,SSE,148,2.0,3.0,83,0.00,,,0.00,WUHU216DAVISVP2,2013-12-28 14:04:00,
2013-12-28 08:09:00,31.1,26.5,29.76,SSE,147,2.0,3.0,83,0.00,,,0.00,WUHU216DAVISVP2,2013-12-28 14:09:00,
2013-12-28 08:15:00,31.2,26.3,29.76,SE,141,3.0,3.0,82,0.00,,,0.00,WUHU216DAVISVP2,2013-12-28 14:15:00,
2013-12-28 08:21:00,31.0,26.1,29.75,SSE,150,1.0,3.0,82,0.00,,,0.00,WUHU216DAVISVP2,2013-12-28 14:21:00,
2013-12-28 08:27:00,31.0,26.1,29.75,SE,141,1.0,3.0,82,0.00,,,0.00,WUHU216DAVISVP2,2013-12-28 14:27:00,
2013-12-28 08:32:00,31.0,26.1,29.75,SE,141,0.0,3.0,82,0.00,,,0.00,WUHU216DAVISVP2,2013-12-28 14:32:00,
2013-12-28 08:37:00,30.8,25.9,29.75,SSE,156,0.0,2.0,82,0.00,,,0.00,WUHU216DAVISVP2,2013-12-28 14:37:00,
2013-12-28 08:43:00,30.6,25.8,29.75,SSE,147,0.0,1.0,82,0.00,,,0.00,WUHU216DAVISVP2,2013-12-28 14:43:00,
2013-12-28 08:48:00,30.6,25.8,29.75,SSE,160,0.0,1.0,82,0.00,,,0.00,WUHU216DAVISVP2,2013-12-28 14:48:00,
2013-12-28 08:53:00,30.9,26.0,29.74,SE,142,0.0,1.0,82,0.00,,,0.00,WUHU216DAVISVP2,2013-12-28 14:53:00,
2013-12-28 08:59:00,31.1,26.0,29.74,SE,139,0.0,3.0,81,0.00,,,0.00,WUHU216DAVISVP2,2013-12-28 14:59:00,
2013-12-28 09:05:00,31.3,26.1,29.74,SE,137,0.0,3.0,81,0.00,,,0.00,WUHU216DAVISVP2,2013-12-28 15:05:00,
2013-12-28 09:11:00,31.6,26.1,29.74,SE,124,0.0,2.0,80,0.00,,,0.00,WUHU216DAVISVP2,2013-12-28 15:11:00,
2013-12-28 09:17:00,32.1,26.6,29.74,SSE,150,1.0,4.0,80,0.00,,,0.00,WUHU216DAVISVP2,2013-12-28 15:17:00,
2013-12-28 09:23:00,32.5,26.7,29.74,ESE,110,1.0,4.0,79,0.00,,,0.00,WUHU216DAVISVP2,2013-12-28 15:23:00,
2013-12-28 09:29:00,33.1,27.0,29.74,ESE,115,3.0,3.0,78,0.00,,,0.00,WUHU216DAVISVP2,2013-12-28 15:29:00,
2013-12-28 09:34:00,33.4,27.0,29.74,SSE,150,3.0,4.0,77,0.00,,,0.00,WUHU216DAVISVP2,2013-12-28 15:34:00,
2013-12-28 09:39:00,33.9,27.2,29.74,SE,129,1.0,4.0,76,0.00,,,0.00,WUHU216DAVISVP2,2013-12-28 15:39:00,
2013-12-28 09:45:00,34.1,27.0,29.73,SSE,154,2.0,4.0,75,0.00,,,0.00,WUHU216DAVISVP2,2013-12-28 15:45:00,
2013-12-28 09:51:00,34.4,27.3,29.73,SE,140,2.0,4.0,75,0.00,,,0.00,WUHU216DAVISVP2,2013-12-28 15:51:00,
2013-12-28 09:57:00,34.7,27.6,29.74,SE,140,1.0,4.0,75,0.00,,,0.00,WUHU216DAVISVP2,2013-12-28 15:57:00,
2013-12-28 10:02:00,35.3,27.9,29.74,SE,146,1.0,3.0,74,0.00,,,0.00,WUHU216DAVISVP2,2013-12-28 16:02:00,
2013-12-28 10:08:00,35.7,28.0,29.74,SSE,153,3.0,4.0,73,0.00,,,0.00,WUHU216DAVISVP2,2013-12-28 16:08:00,
2013-12-28 10:13:00,35.9,28.1,29.73,ESE,105,3.0,4.0,73,0.00,,,0.00,WUHU216DAVISVP2,2013-12-28 16:13:00,
2013-12-28 10:18:00,36.0,27.9,29.73,ESE,115,3.0,4.0,72,0.00,,,0.00,WUHU216DAVISVP2,2013-12-28 16:18:00,
2013-12-28 10:25:00,36.1,28.3,29.73,SSE,147,3.0,4.0,73,0.00,,,0.00,WUHU216DAVISVP2,2013-12-28 16:25:00,
2013-12-28 10:31:00,36.1,28.3,29.72,SE,136,2.0,4.0,73,0.00,,,0.00,WUHU216DAVISVP2,2013-12-28 16:31:00,
2013-12-28 10:36:00,36.3,28.5,29.72,SE,145,1.0,4.0,73,0.00,,,0.00,WUHU216DAVISVP2,2013-12-28 16:36:00,
2013-12-28 10:42:00,36.7,28.9,29.72,SSE,154,3.0,4.0,73,0.00,,,0.00,WUHU216DAVISVP2,2013-12-28 16:42:00,
2013-12-28 10:48:00,36.9,28.8,29.72,SSE,156,2.0,4.0,72,0.00,,,0.00,WUHU216DAVISVP2,2013-12-28 16:48:00,
2013-12-28 10:54:00,37.2,29.4,29.72,SSE,161,1.0,4.0,73,0.00,,,0.00,WUHU216DAVISVP2,2013-12-28 16:54:00,
2013-12-28 10:59:00,37.7,29.9,29.71,SSE,165,3.0,4.0,73,0.00,,,0.00,WUHU216DAVISVP2,2013-12-28 16:59:00,
2013-12-28 11:05:00,38.1,30.3,29.70,SSE,150,3.0,4.0,73,0.00,,,0.00,WUHU216DAVISVP2,2013-12-28 17:05:00,
2013-12-28 11:11:00,38.5,30.7,29.70,SSE,159,3.0,4.0,73,0.00,,,0.00,WUHU216DAVISVP2,2013-12-28 17:11:00,
2013-12-28 11:17:00,39.2,31.0,29.70,SSE,160,2.0,4.0,72,0.00,,,0.00,WUHU216DAVISVP2,2013-12-28 17:17:00,
2013-12-28 11:23:00,39.7,31.1,29.70,SSE,155,2.0,4.0,71,0.00,,,0.00,WUHU216DAVISVP2,2013-12-28 17:23:00,
2013-12-28 11:28:00,40.3,31.7,29.70,SE,140,4.0,5.0,71,0.00,,,0.00,WUHU216DAVISVP2,2013-12-28 17:28:00,
2013-12-28 11:34:00,40.8,32.2,29.70,SSE,165,0.0,5.0,71,0.00,,,0.00,WUHU216DAVISVP2,2013-12-28 17:34:00,
2013-12-28 11:40:00,41.5,31.8,29.69,SSE,162,4.0,8.0,68,0.00,,,0.00,WUHU216DAVISVP2,2013-12-28 17:40:00,
2013-12-28 11:45:00,41.9,32.2,29.69,SSE,165,1.0,8.0,68,0.00,,,0.00,WUHU216DAVISVP2,2013-12-28 17:45:00,
2013-12-28 11:51:00,42.3,32.2,29.68,SSE,153,3.0,6.0,67,0.00,,,0.00,WUHU216DAVISVP2,2013-12-28 17:51:00,
2013-12-28 11:56:00,42.5,31.9,29.68,SSE,152,3.0,6.0,66,0.00,,,0.00,WUHU216DAVISVP2,2013-12-28 17:56:00,
2013-12-28 12:02:00,42.7,32.2,29.68,SSE,150,2.0,5.0,66,0.00,,,0.00,WUHU216DAVISVP2,2013-12-28 18:02:00,
2013-12-28 12:08:00,43.0,32.5,29.68,SW,224,1.0,5.0,66,0.00,,,0.00,WUHU216DAVISVP2,2013-12-28 18:08:00,
2013-12-28 12:14:00,43.3,32.4,29.68,SW,236,0.0,5.0,65,0.00,,,0.00,WUHU216DAVISVP2,2013-12-28 18:14:00,
2013-12-28 12:20:00,43.4,32.5,29.67,SSW,196,2.0,8.0,65,0.00,,,0.00,WUHU216DAVISVP2,2013-12-28 18:20:00,
2013-12-28 12:25:00,43.5,32.1,29.67,South,185,2.0,8.0,64,0.00,,,0.00,WUHU216DAVISVP2,2013-12-28 18:25:00,
2013-12-28 12:32:00,43.7,32.4,29.67,SW,235,4.0,6.0,64,0.00,,,0.00,WUHU216DAVISVP2,2013-12-28 18:32:00,
2013-12-28 12:37:00,43.7,32.4,29.67,South,185,1.0,7.0,64,0.00,,,0.00,WUHU216DAVISVP2,2013-12-28 18:37:00,
2013-12-28 12:43:00,43.8,32.0,29.67,WSW,252,4.0,7.0,63,0.00,,,0.00,WUHU216DAVISVP2,2013-12-28 18:43:00,
2013-12-28 12:48:00,43.9,32.2,29.67,South,191,1.0,9.0,63,0.00,,,0.00,WUHU216DAVISVP2,2013-12-28 18:48:00,
2013-12-28 12:54:00,43.8,32.1,29.67,South,169,3.0,8.0,63,0.00,,,0.00,WUHU216DAVISVP2,2013-12-28 18:54:00,
2013-12-28 12:59:00,43.8,32.1,29.67,SW,216,3.0,8.0,63,0.00,,,0.00,WUHU216DAVISVP2,2013-12-28 18:59:00,
2013-12-28 13:05:00,44.1,32.3,29.66,SW,219,3.0,8.0,63,0.00,,,0.00,WUHU216DAVISVP2,2013-12-28 19:05:00,
2013-12-28 13:11:00,44.4,32.3,29.67,SW,215,3.0,7.0,62,0.00,,,0.00,WUHU216DAVISVP2,2013-12-28 19:11:00,
2013-12-28 13:16:00,44.8,32.7,29.67,SW,217,1.0,11.0,62,0.00,,,0.00,WUHU216DAVISVP2,2013-12-28 19:16:00,
2013-12-28 13:21:00,45.1,32.5,29.67,WSW,239,4.0,11.0,61,0.00,,,0.00,WUHU216DAVISVP2,2013-12-28 19:21:00,
2013-12-28 13:26:00,45.2,32.2,29.67,West,278,4.0,9.0,60,0.00,,,0.00,WUHU216DAVISVP2,2013-12-28 19:26:00,
2013-12-28 13:32:00,45.4,32.4,29.67,West,271,3.0,9.0,60,0.00,,,0.00,WUHU216DAVISVP2,2013-12-28 19:32:00,
2013-12-28 13:37:00,45.6,32.6,29.67,WSW,252,4.0,12.0,60,0.00,,,0.00,WUHU216DAVISVP2,2013-12-28 19:37:00,
2013-12-28 13:42:00,45.7,32.3,29.67,WSW,251,7.0,12.0,59,0.00,,,0.00,WUHU216DAVISVP2,2013-12-28 19:42:00,
2013-12-28 13:47:00,45.7,32.6,29.67,West,281,12.0,12.0,60,0.00,,,0.00,WUHU216DAVISVP2,2013-12-28 19:47:00,
2013-12-28 13:52:00,45.5,32.5,29.67,WSW,246,6.0,15.0,60,0.00,,,0.00,WUHU216DAVISVP2,2013-12-28 19:52:00,
2013-12-28 13:57:00,45.2,32.2,29.67,WSW,254,7.0,15.0,60,0.00,,,0.00,WUHU216DAVISVP2,2013-12-28 19:57:00,
2013-12-28 14:02:00,45.1,32.5,29.67,West,259,5.0,13.0,61,0.00,,,0.00,WUHU216DAVISVP2,2013-12-28 20:02:00,
2013-12-28 14:07:00,45.0,32.8,29.67,West,262,4.0,11.0,62,0.00,,,0.00,WUHU216DAVISVP2,2013-12-28 20:07:00,
2013-12-28 14:12:00,44.9,32.8,29.67,WSW,258,7.0,10.0,62,0.00,,,0.00,WUHU216DAVISVP2,2013-12-28 20:12:00,
2013-12-28 14:18:00,44.6,32.9,29.68,West,281,6.0,13.0,63,0.00,,,0.00,WUHU216DAVISVP2,2013-12-28 20:18:00,
2013-12-28 14:23:00,44.2,32.9,29.67,West,268,7.0,13.0,64,0.00,,,0.00,WUHU216DAVISVP2,2013-12-28 20:23:00,
2013-12-28 14:28:00,44.0,32.6,29.68,WNW,283,5.0,12.0,64,0.00,,,0.00,WUHU216DAVISVP2,2013-12-28 20:28:00,
2013-12-28 14:33:00,43.7,32.8,29.69,NNE,25,7.0,15.0,65,0.00,,,0.00,WUHU216DAVISVP2,2013-12-28 20:33:00,
2013-12-28 14:39:00,43.0,32.1,29.69,WNW,298,9.0,16.0,65,0.00,,,0.00,WUHU216DAVISVP2,2013-12-28 20:39:00,
2013-12-28 14:44:00,42.4,31.9,29.69,WNW,286,4.0,16.0,66,0.00,,,0.00,WUHU216DAVISVP2,2013-12-28 20:44:00,
2013-12-28 14:49:00,42.4,31.8,29.69,NW,313,4.0,16.0,66,0.00,,,0.00,WUHU216DAVISVP2,2013-12-28 20:49:00,
2013-12-28 14:54:00,42.3,32.2,29.70,NW,307,4.0,12.0,67,0.00,,,0.00,WUHU216DAVISVP2,2013-12-28 20:54:00,
2013-12-28 14:59:00,42.3,32.2,29.71,NW,305,5.0,12.0,67,0.00,,,0.00,WUHU216DAVISVP2,2013-12-28 20:59:00,
2013-12-28 15:05:00,42.2,32.0,29.71,WNW,299,7.0,13.0,67,0.00,,,0.00,WUHU216DAVISVP2,2013-12-28 21:05:00,
2013-12-28 15:10:00,41.9,32.2,29.72,NW,312,13.0,16.0,68,0.00,,,0.00,WUHU216DAVISVP2,2013-12-28 21:10:00,
2013-12-28 15:15:00,41.6,32.3,29.72,NW,319,9.0,15.0,69,0.00,,,0.00,WUHU216DAVISVP2,2013-12-28 21:15:00,
2013-12-28 15:20:00,41.2,32.2,29.73,NW,310,7.0,15.0,70,0.00,,,0.00,WUHU216DAVISVP2,2013-12-28 21:20:00,
2013-12-28 15:25:00,40.8,32.2,29.73,WNW,295,7.0,16.0,71,0.00,,,0.00,WUHU216DAVISVP2,2013-12-28 21:25:00,
2013-12-28 15:30:00,40.3,32.1,29.74,WNW,294,7.0,16.0,72,0.00,,,0.00,WUHU216DAVISVP2,2013-12-28 21:30:00,
2013-12-28 15:35:00,39.9,31.6,29.74,NW,310,10.0,19.0,72,0.00,,,0.00,WUHU216DAVISVP2,2013-12-28 21:35:00,
2013-12-28 15:40:00,39.7,31.8,29.74,WNW,303,8.0,19.0,73,0.00,,,0.00,WUHU216DAVISVP2,2013-12-28 21:40:00,
2013-12-28 15:46:00,39.5,32.0,29.75,NW,312,8.0,16.0,74,0.00,,,0.00,WUHU216DAVISVP2,2013-12-28 21:46:00,
2013-12-28 15:52:00,39.3,31.7,29.75,NW,309,8.0,12.0,74,0.00,,,0.00,WUHU216DAVISVP2,2013-12-28 21:52:00,
2013-12-28 15:57:00,39.0,31.8,29.76,NW,305,15.0,16.0,75,0.00,,,0.00,WUHU216DAVISVP2,2013-12-28 21:57:00,
2013-12-28 16:02:00,38.7,31.8,29.76,WNW,302,17.0,20.0,76,0.00,,,0.00,WUHU216DAVISVP2,2013-12-28 22:02:00,
2013-12-28 16:08:00,38.1,31.2,29.77,NW,322,13.0,21.0,76,0.00,,,0.00,WUHU216DAVISVP2,2013-12-28 22:08:00,
2013-12-28 16:13:00,37.2,31.0,29.78,WNW,298,7.0,21.0,78,0.00,,,0.00,WUHU216DAVISVP2,2013-12-28 22:13:00,
2013-12-28 16:19:00,36.3,30.7,29.78,NNW,337,9.0,24.0,80,0.00,,,0.00,WUHU216DAVISVP2,2013-12-28 22:19:00,
2013-12-28 16:24:00,35.9,30.3,29.78,NNW,333,15.0,24.0,80,0.00,,,0.00,WUHU216DAVISVP2,2013-12-28 22:24:00,
2013-12-28 16:29:00,35.4,30.2,29.79,NW,309,12.0,21.0,81,0.00,,,0.00,WUHU216DAVISVP2,2013-12-28 22:29:00,
2013-12-28 16:34:00,35.0,29.8,29.80,NW,313,10.0,19.0,81,0.00,,,0.00,WUHU216DAVISVP2,2013-12-28 22:34:00,
2013-12-28 16:40:00,34.6,29.7,29.80,NW,315,11.0,19.0,82,0.00,,,0.00,WUHU216DAVISVP2,2013-12-28 22:40:00,
2013-12-28 16:45:00,34.2,29.3,29.81,West,259,15.0,21.0,82,0.00,,,0.00,WUHU216DAVISVP2,2013-12-28 22:45:00,
2013-12-28 16:50:00,33.9,29.3,29.82,NW,323,11.0,21.0,83,0.00,,,0.00,WUHU216DAVISVP2,2013-12-28 22:50:00,
2013-12-28 16:55:00,33.4,28.5,29.82,NW,321,11.0,24.0,82,0.00,,,0.00,WUHU216DAVISVP2,2013-12-28 22:55:00,
2013-12-28 17:01:00,32.7,28.1,29.83,NW,319,16.0,27.0,83,0.00,,,0.00,WUHU216DAVISVP2,2013-12-28 23:01:00,
2013-12-28 17:06:00,32.2,27.9,29.84,NNW,339,16.0,27.0,84,0.00,,,0.00,WUHU216DAVISVP2,2013-12-28 23:06:00,
2013-12-28 17:11:00,31.8,27.8,29.85,NNW,334,12.0,28.0,85,0.00,,,0.00,WUHU216DAVISVP2,2013-12-28 23:11:00,
2013-12-28 17:18:00,30.4,25.8,29.86,NW,311,13.0,24.0,83,0.00,,,0.00,WUHU216DAVISVP2,2013-12-28 23:18:00,
2013-12-28 17:23:00,29.1,24.8,29.87,NNW,336,13.0,23.0,84,0.00,,,0.00,WUHU216DAVISVP2,2013-12-28 23:23:00,
2013-12-28 17:28:00,28.0,23.8,29.87,NW,320,12.0,29.0,84,0.00,,,0.00,WUHU216DAVISVP2,2013-12-28 23:28:00,
2013-12-28 17:33:00,27.0,22.5,29.88,NNW,344,25.0,30.0,83,0.00,,,0.00,WUHU216DAVISVP2,2013-12-28 23:33:00,
2013-12-28 17:39:00,26.3,21.8,29.88,NW,323,19.0,36.0,83,0.00,,,0.00,WUHU216DAVISVP2,2013-12-28 23:39:00,
2013-12-28 17:44:00,25.9,21.7,29.89,NW,317,12.0,36.0,84,0.00,,,0.00,WUHU216DAVISVP2,2013-12-28 23:44:00,
2013-12-28 17:49:00,25.8,21.6,29.90,NW,325,14.0,30.0,84,0.00,,,0.00,WUHU216DAVISVP2,2013-12-28 23:49:00,
2013-12-28 17:54:00,25.5,21.0,29.90,NNW,328,17.0,29.0,83,0.00,,,0.00,WUHU216DAVISVP2,2013-12-28 23:54:00,
2013-12-28 17:59:00,25.0,20.5,29.91,NW,313,18.0,38.0,83,0.00,,,0.00,WUHU216DAVISVP2,2013-12-28 23:59:00,
2013-12-28 18:04:00,24.4,20.0,29.92,NNW,334,15.0,38.0,83,0.00,,,0.00,WUHU216DAVISVP2,2013-12-29 00:04:00,
2013-12-28 18:09:00,23.7,18.7,29.93,NW,318,16.0,33.0,81,0.00,,,0.00,WUHU216DAVISVP2,2013-12-29 00:09:00,
2013-12-28 18:14:00,23.2,18.8,29.94,NW,323,11.0,33.0,83,0.00,,,0.00,WUHU216DAVISVP2,2013-12-29 00:14:00,
2013-12-28 18:19:00,22.6,17.6,29.95,NNW,334,15.0,33.0,81,0.00,,,0.00,WUHU216DAVISVP2,2013-12-29 00:19:00,
2013-12-28 18:25:00,21.1,15.9,29.95,NW,324,9.0,30.0,80,0.00,,,0.00,WUHU216DAVISVP2,2013-12-29 00:25:00,
2013-12-28 18:30:00,20.4,15.2,29.96,NW,322,14.0,28.0,80,0.00,,,0.00,WUHU216DAVISVP2,2013-12-29 00:30:00,
2013-12-28 18:36:00,20.3,15.4,29.96,NW,308,21.0,28.0,81,0.00,,,0.00,WUHU216DAVISVP2,2013-12-29 00:36:00,
2013-12-28 18:41:00,19.7,14.2,29.97,NW,320,16.0,28.0,79,0.00,,,0.00,WUHU216DAVISVP2,2013-12-29 00:41:00,
2013-12-28 18:46:00,18.8,13.1,29.99,NNW,348,23.0,30.0,78,0.00,,,0.00,WUHU216DAVISVP2,2013-12-29 00:46:00,
2013-12-28 18:51:00,17.9,12.2,29.99,NW,321,11.0,30.0,78,0.00,,,0.00,WUHU216DAVISVP2,2013-12-29 00:51:00,
2013-12-28 18:56:00,17.3,11.6,29.99,NW,323,15.0,29.0,78,0.00,,,0.00,WUHU216DAVISVP2,2013-12-29 00:56:00,
2013-12-28 19:01:00,16.8,11.1,30.00,WNW,287,9.0,25.0,78,0.00,,,0.00,WUHU216DAVISVP2,2013-12-29 01:01:00,
2013-12-28 19:06:00,16.3,10.6,30.01,NNW,334,15.0,25.0,78,0.00,,,0.00,WUHU216DAVISVP2,2013-12-29 01:06:00,
2013-12-28 19:11:00,15.6,10.2,30.01,NNW,333,12.0,34.0,79,0.00,,,0.00,WUHU216DAVISVP2,2013-12-29 01:11:00,
2013-12-28 19:17:00,15.3,10.2,30.01,NW,321,10.0,34.0,80,0.00,,,0.00,WUHU216DAVISVP2,2013-12-29 01:17:00,
2013-12-28 19:22:00,14.9,9.6,30.02,NW,308,15.0,28.0,79,0.00,,,0.00,WUHU216DAVISVP2,2013-12-29 01:22:00,
2013-12-28 19:28:00,14.2,8.6,30.03,NW,319,15.0,30.0,78,0.00,,,0.00,WUHU216DAVISVP2,2013-12-29 01:28:00,
2013-12-28 19:33:00,13.2,7.3,30.02,NNW,333,16.0,30.0,77,0.00,,,0.00,WUHU216DAVISVP2,2013-12-29 01:33:00,
2013-12-28 19:38:00,12.7,7.1,30.03,NW,323,12.0,32.0,78,0.00,,,0.00,WUHU216DAVISVP2,2013-12-29 01:38:00,
2013-12-28 19:43:00,12.5,7.0,30.03,NW,319,13.0,32.0,78,0.00,,,0.00,WUHU216DAVISVP2,2013-12-29 01:43:00,
2013-12-28 19:49:00,12.3,7.0,30.03,NW,313,14.0,34.0,79,0.00,,,0.00,WUHU216DAVISVP2,2013-12-29 01:49:00,
2013-12-28 19:54:00,12.1,6.8,30.04,NW,308,13.0,34.0,79,0.00,,,0.00,WUHU216DAVISVP2,2013-12-29 01:54:00,
2013-12-28 19:59:00,11.8,6.5,30.04,NW,304,15.0,26.0,79,0.00,,,0.00,WUHU216DAVISVP2,2013-12-29 01:59:00,
2013-12-28 20:04:00,11.6,6.4,30.05,NW,320,11.0,28.0,79,0.00,,,0.00,WUHU216DAVISVP2,2013-12-29 02:04:00,
2013-12-28 20:09:00,11.3,5.5,30.05,NW,324,13.0,28.0,77,0.00,,,0.00,WUHU216DAVISVP2,2013-12-29 02:09:00,
2013-12-28 20:14:00,11.1,5.6,30.05,NW,317,12.0,25.0,78,0.00,,,0.00,WUHU216DAVISVP2,2013-12-29 02:14:00,
2013-12-28 20:19:00,10.7,5.2,30.06,NW,326,10.0,25.0,78,0.00,,,0.00,WUHU216DAVISVP2,2013-12-29 02:19:00,
2013-12-28 20:25:00,10.3,4.3,30.06,NNW,332,14.0,27.0,76,0.00,,,0.00,WUHU216DAVISVP2,2013-12-29 02:25:00,
2013-12-28 20:31:00,10.0,4.2,30.06,NNW,341,12.0,27.0,77,0.00,,,0.00,WUHU216DAVISVP2,2013-12-29 02:31:00,
2013-12-28 20:36:00,10.0,4.5,30.07,NW,312,11.0,27.0,78,0.00,,,0.00,WUHU216DAVISVP2,2013-12-29 02:36:00,
2013-12-28 20:41:00,9.8,4.6,30.07,NNW,332,12.0,24.0,79,0.00,,,0.00,WUHU216DAVISVP2,2013-12-29 02:41:00,
2013-12-28 20:46:00,9.5,3.8,30.07,West,269,11.0,25.0,77,0.00,,,0.00,WUHU216DAVISVP2,2013-12-29 02:46:00,
2013-12-28 20:51:00,9.2,3.4,30.08,NW,304,15.0,25.0,77,0.00,,,0.00,WUHU216DAVISVP2,2013-12-29 02:51:00,
2013-12-28 20:56:00,8.9,2.9,30.08,NW,305,21.0,27.0,76,0.00,,,0.00,WUHU216DAVISVP2,2013-12-29 02:56:00,
2013-12-28 21:01:00,8.7,3.0,30.08,NNW,339,16.0,28.0,77,0.00,,,0.00,WUHU216DAVISVP2,2013-12-29 03:01:00,
2013-12-28 21:07:00,8.5,2.8,30.09,NW,311,15.0,28.0,77,0.00,,,0.00,WUHU216DAVISVP2,2013-12-29 03:07:00,
2013-12-28 21:12:00,8.2,2.2,30.09,NNW,332,14.0,24.0,76,0.00,,,0.00,WUHU216DAVISVP2,2013-12-29 03:12:00,
2013-12-28 21:17:00,7.9,2.2,30.10,NW,304,17.0,28.0,77,0.00,,,0.00,WUHU216DAVISVP2,2013-12-29 03:17:00,
2013-12-28 21:22:00,7.3,1.1,30.11,NW,326,16.0,28.0,75,0.00,,,0.00,WUHU216DAVISVP2,2013-12-29 03:22:00,
2013-12-28 21:27:00,6.9,1.0,30.11,NW,319,15.0,25.0,76,0.00,,,0.00,WUHU216DAVISVP2,2013-12-29 03:27:00,
2013-12-28 21:32:00,6.8,1.1,30.11,NW,318,11.0,32.0,77,0.00,,,0.00,WUHU216DAVISVP2,2013-12-29 03:32:00,
2013-12-28 21:38:00,6.9,1.5,30.12,WNW,294,15.0,32.0,78,0.00,,,0.00,WUHU216DAVISVP2,2013-12-29 03:38:00,
2013-12-28 21:43:00,6.7,1.0,30.12,NW,324,15.0,25.0,77,0.00,,,0.00,WUHU216DAVISVP2,2013-12-29 03:43:00,
2013-12-28 21:48:00,6.7,1.0,30.13,NW,307,12.0,25.0,77,0.00,,,0.00,WUHU216DAVISVP2,2013-12-29 03:48:00,
2013-12-28 21:53:00,6.6,1.2,30.13,NNW,331,14.0,24.0,78,0.00,,,0.00,WUHU216DAVISVP2,2013-12-29 03:53:00,
2013-12-28 21:59:00,6.5,1.4,30.14,NNW,345,19.0,24.0,79,0.00,,,0.00,WUHU216DAVISVP2,2013-12-29 03:59:00,
2013-12-28 22:04:00,6.2,0.6,30.14,NNW,344,27.0,28.0,77,0.00,,,0.00,WUHU216DAVISVP2,2013-12-29 04:04:00,
2013-12-28 22:09:00,5.8,-0.1,30.14,NNW,331,11.0,28.0,76,0.00,,,0.00,WUHU216DAVISVP2,2013-12-29 04:09:00,
2013-12-28 22:14:00,5.7,0.1,30.14,North,352,12.0,25.0,77,0.00,,,0.00,WUHU216DAVISVP2,2013-12-29 04:14:00,
2013-12-28 22:19:00,5.5,-0.4,30.14,NW,314,16.0,25.0,76,0.00,,,0.00,WUHU216DAVISVP2,2013-12-29 04:19:00,
2013-12-28 22:25:00,5.4,-0.2,30.14,NNW,328,8.0,25.0,77,0.00,,,0.00,WUHU216DAVISVP2,2013-12-29 04:25:00,
2013-12-28 22:30:00,5.1,-0.5,30.14,NNW,345,19.0,24.0,77,0.00,,,0.00,WUHU216DAVISVP2,2013-12-29 04:30:00,
2013-12-28 22:35:00,5.0,-0.6,30.15,NW,323,16.0,27.0,77,0.00,,,0.00,WUHU216DAVISVP2,2013-12-29 04:35:00,
2013-12-28 22:40:00,4.8,-0.8,30.15,NW,326,17.0,28.0,77,0.00,,,0.00,WUHU216DAVISVP2,2013-12-29 04:40:00,
2013-12-28 22:46:00,4.9,-0.4,30.15,NNW,329,9.0,28.0,78,0.00,,,0.00,WUHU216DAVISVP2,2013-12-29 04:46:00,
2013-12-28 22:51:00,4.8,0.0,30.15,NW,323,21.0,21.0,80,0.00,,,0.00,WUHU216DAVISVP2,2013-12-29 04:51:00,
2013-12-28 22:57:00,4.5,-0.6,30.16,NW,307,12.0,27.0,79,0.00,,,0.00,WUHU216DAVISVP2,2013-12-29 04:57:00,
2013-12-28 23:01:00,4.3,-0.8,30.16,NNW,343,16.0,27.0,79,0.00,,,0.00,WUHU216DAVISVP2,2013-12-29 05:01:00,
2013-12-28 23:03:00,4.2,-1.1,30.16,NW,322,15.0,27.0,78,0.00,,,0.00,WUHU216DAVISVP2,2013-12-29 05:03:00,
2013-12-28 23:04:00,4.2,-0.9,30.16,NW,306,16.0,27.0,79,0.00,,,0.00,WUHU216DAVISVP2,2013-12-29 05:04:00,
2013-12-28 23:05:00,4.2,-0.9,30.16,NW,324,12.0,27.0,79,0.00,,,0.00,WUHU216DAVISVP2,2013-12-29 05:05:00,
2013-12-28 23:12:00,4.2,-0.9,30.16,WNW,299,19.0,21.0,79,0.00,,,0.00,WUHU216DAVISVP2,2013-12-29 05:12:00,
2013-12-28 23:17:00,4.2,-0.9,30.17,NW,324,11.0,21.0,79,0.00,,,0.00,WUHU216DAVISVP2,2013-12-29 05:17:00,
2013-12-28 23:22:00,4.1,-1.5,30.17,NNW,338,16.0,25.0,77,0.00,,,0.00,WUHU216DAVISVP2,2013-12-29 05:22:00,
2013-12-28 23:27:00,4.1,-1.2,30.17,NNW,338,13.0,25.0,78,0.00,,,0.00,WUHU216DAVISVP2,2013-12-29 05:27:00,
2013-12-28 23:40:00,4.0,-1.6,30.17,NW,325,8.0,19.0,77,0.00,,,0.00,WUHU216DAVISVP2,2013-12-29 05:40:00,
2013-12-28 23:45:00,4.3,-1.3,30.18,NW,311,6.0,15.0,77,0.00,,,0.00,WUHU216DAVISVP2,2013-12-29 05:45:00,
2013-12-28 23:50:00,4.2,-1.1,30.18,North,353,12.0,25.0,78,0.00,,,0.00,WUHU216DAVISVP2,2013-12-29 05:50:00,
2013-12-28 23:55:00,4.2,-1.4,30.19,NW,321,6.0,25.0,77,0.00,,,0.00,WUHU216DAVISVP2,2013-12-29 05:55:00,